createdAt,value
2023-10-11T05:44:44.636Z,5.68
2023-10-11T05:47:11.550Z,5.49
2023-10-11T05:49:38.345Z,5.66
2023-10-11T05:52:04.742Z,5.64
2023-10-11T05:54:31.562Z,5.91
2023-10-11T05:56:58.755Z,5.69
2023-10-11T05:59:27.907Z,5.65
2023-10-11T06:01:54.669Z,5.47
2023-10-11T06:04:21.080Z,5.38
2023-10-11T06:06:47.798Z,5.44
2023-10-11T06:09:14.309Z,5.48
2023-10-11T06:11:40.860Z,5.64
2023-10-11T06:14:07.380Z,5.88
2023-10-11T06:16:34.826Z,17.70
2023-10-11T06:19:01.342Z,17.63
2023-10-11T06:21:27.852Z,11.25
2023-10-11T06:23:54.323Z,17.47
2023-10-11T06:26:26.317Z,17.94
2023-10-11T06:28:52.789Z,14.99
2023-10-11T06:31:22.390Z,14.80
2023-10-11T06:33:52.965Z,8.75
2023-10-11T06:36:19.668Z,7.83
2023-10-11T06:38:46.051Z,11.38
2023-10-11T06:41:12.669Z,13.24
2023-10-11T06:43:40.163Z,12.04
2023-10-11T06:46:06.649Z,10.73
2023-10-11T06:48:33.207Z,9.35
2023-10-11T06:50:59.968Z,9.36
2023-10-11T06:53:26.445Z,22.63
2023-10-11T06:55:53.025Z,40.42
2023-10-11T06:58:19.518Z,35.31
2023-10-11T07:00:45.958Z,35.26
2023-10-11T07:03:15.037Z,23.19
2023-10-11T07:05:41.533Z,15.16
2023-10-11T07:08:07.950Z,13.86
2023-10-11T07:10:34.573Z,13.58
2023-10-11T07:13:01.310Z,12.47
2023-10-11T07:15:28.033Z,12.54
2023-10-11T07:17:54.477Z,11.43
2023-10-11T07:20:20.850Z,10.63
2023-10-11T07:22:48.518Z,10.25
2023-10-11T07:25:15.077Z,10.73
2023-10-11T07:27:41.513Z,10.24
2023-10-11T07:30:08.286Z,10.11
2023-10-11T07:32:37.685Z,15.74
2023-10-11T07:35:04.388Z,16.88
2023-10-11T07:37:30.804Z,12.85
2023-10-11T07:39:58.230Z,11.34
2023-10-11T07:42:24.703Z,15.87
2023-10-11T07:44:51.220Z,19.24
2023-10-11T07:47:18.083Z,13.43
2023-10-11T07:49:44.468Z,11.92
2023-10-11T07:52:13.685Z,12.14
2023-10-11T07:54:40.309Z,11.05
2023-10-11T07:57:07.826Z,10.65
2023-10-11T07:59:36.426Z,9.31
